sensor_id;sensor_type;location;lat;lon;timestamp;P1;durP1;ratioP1;P2;durP2;ratioP2
16127;SDS011;8168;49.036;7.690;2022-11-20T00:00:22;11.70;;;7.20;;
16127;SDS011;8168;49.036;7.690;2022-11-20T00:02:53;13.27;;;7.47;;
16127;SDS011;8168;49.036;7.690;2022-11-20T00:05:23;11.00;;;6.60;;
16127;SDS011;8168;49.036;7.690;2022-11-20T00:07:54;12.17;;;7.03;;
16127;SDS011;8168;49.036;7.690;2022-11-20T00:10:25;11.70;;;6.73;;
16127;SDS011;8168;49.036;7.690;2022-11-20T00:12:57;11.80;;;7.10;;
16127;SDS011;8168;49.036;7.690;2022-11-20T00:15:28;9.73;;;6.87;;
16127;SDS011;8168;49.036;7.690;2022-11-20T00:17:59;8.47;;;6.00;;
16127;SDS011;8168;49.036;7.690;2022-11-20T00:20:30;13.27;;;7.17;;
16127;SDS011;8168;49.036;7.690;2022-11-20T00:23:01;10.87;;;7.37;;
16127;SDS011;8168;49.036;7.690;2022-11-20T00:25:33;9.80;;;6.43;;
16127;SDS011;8168;49.036;7.690;2022-11-20T00:28:05;10.03;;;6.93;;
16127;SDS011;8168;49.036;7.690;2022-11-20T00:30:35;9.77;;;5.93;;
16127;SDS011;8168;49.036;7.690;2022-11-20T00:33:06;8.70;;;6.27;;
16127;SDS011;8168;49.036;7.690;2022-11-20T00:35:36;9.67;;;6.47;;
16127;SDS011;8168;49.036;7.690;2022-11-20T00:38:07;9.47;;;6.37;;
16127;SDS011;8168;49.036;7.690;2022-11-20T00:40:38;9.93;;;6.37;;
16127;SDS011;8168;49.036;7.690;2022-11-20T00:43:08;11.43;;;6.57;;
16127;SDS011;8168;49.036;7.690;2022-11-20T00:45:39;9.10;;;6.73;;
16127;SDS011;8168;49.036;7.690;2022-11-20T00:48:10;10.40;;;6.57;;
16127;SDS011;8168;49.036;7.690;2022-11-20T00:50:41;10.30;;;6.50;;
16127;SDS011;8168;49.036;7.690;2022-11-20T00:53:12;11.27;;;7.40;;
16127;SDS011;8168;49.036;7.690;2022-11-20T00:55:42;10.67;;;6.10;;
16127;SDS011;8168;49.036;7.690;2022-11-20T00:58:13;9.63;;;5.93;;
16127;SDS011;8168;49.036;7.690;2022-11-20T01:00:43;8.00;;;5.97;;
16127;SDS011;8168;49.036;7.690;2022-11-20T01:03:14;11.00;;;6.30;;
16127;SDS011;8168;49.036;7.690;2022-11-20T01:05:48;8.40;;;6.23;;
16127;SDS011;8168;49.036;7.690;2022-11-20T01:08:19;12.03;;;6.70;;
16127;SDS011;8168;49.036;7.690;2022-11-20T01:10:50;8.33;;;6.30;;
16127;SDS011;8168;49.036;7.690;2022-11-20T01:13:20;10.67;;;6.63;;
16127;SDS011;8168;49.036;7.690;2022-11-20T01:16:14;10.13;;;6.47;;
16127;SDS011;8168;49.036;7.690;2022-11-20T01:18:57;11.60;;;6.63;;
16127;SDS011;8168;49.036;7.690;2022-11-20T01:21:30;9.97;;;7.00;;
16127;SDS011;8168;49.036;7.690;2022-11-20T01:24:03;9.53;;;6.47;;
16127;SDS011;8168;49.036;7.690;2022-11-20T01:26:35;11.20;;;5.90;;
16127;SDS011;8168;49.036;7.690;2022-11-20T01:29:08;10.53;;;5.97;;
16127;SDS011;8168;49.036;7.690;2022-11-20T01:31:44;12.17;;;6.70;;
16127;SDS011;8168;49.036;7.690;2022-11-20T01:34:16;9.33;;;6.10;;
16127;SDS011;8168;49.036;7.690;2022-11-20T01:36:49;11.73;;;6.97;;
16127;SDS011;8168;49.036;7.690;2022-11-20T01:39:22;10.80;;;6.73;;
16127;SDS011;8168;49.036;7.690;2022-11-20T01:41:55;6.87;;;5.40;;
16127;SDS011;8168;49.036;7.690;2022-11-20T01:48:03;12.30;;;6.00;;
16127;SDS011;8168;49.036;7.690;2022-11-20T01:50:27;9.43;;;6.20;;
16127;SDS011;8168;49.036;7.690;2022-11-20T01:53:02;7.47;;;5.80;;
16127;SDS011;8168;49.036;7.690;2022-11-20T01:55:39;10.13;;;5.97;;
16127;SDS011;8168;49.036;7.690;2022-11-20T01:58:14;8.50;;;6.10;;
16127;SDS011;8168;49.036;7.690;2022-11-20T02:00:46;10.00;;;6.20;;
16127;SDS011;8168;49.036;7.690;2022-11-20T02:03:17;6.37;;;4.60;;
16127;SDS011;8168;49.036;7.690;2022-11-20T02:05:51;8.13;;;5.03;;
16127;SDS011;8168;49.036;7.690;2022-11-20T02:08:41;10.83;;;6.07;;
16127;SDS011;8168;49.036;7.690;2022-11-20T02:11:12;9.83;;;5.37;;
16127;SDS011;8168;49.036;7.690;2022-11-20T02:13:43;8.80;;;5.13;;
16127;SDS011;8168;49.036;7.690;2022-11-20T02:18:44;6.00;;;4.33;;
16127;SDS011;8168;49.036;7.690;2022-11-20T02:21:24;8.43;;;5.07;;
16127;SDS011;8168;49.036;7.690;2022-11-20T02:26:46;8.13;;;4.90;;
16127;SDS011;8168;49.036;7.690;2022-11-20T02:29:25;7.23;;;5.20;;
16127;SDS011;8168;49.036;7.690;2022-11-20T02:32:21;8.97;;;5.20;;
16127;SDS011;8168;49.036;7.690;2022-11-20T02:34:53;9.57;;;5.20;;
16127;SDS011;8168;49.036;7.690;2022-11-20T02:37:30;6.60;;;4.23;;
16127;SDS011;8168;49.036;7.690;2022-11-20T02:40:04;8.30;;;4.90;;
16127;SDS011;8168;49.036;7.690;2022-11-20T02:42:35;6.53;;;4.63;;
16127;SDS011;8168;49.036;7.690;2022-11-20T02:45:07;7.23;;;4.43;;
16127;SDS011;8168;49.036;7.690;2022-11-20T02:47:38;5.10;;;4.40;;
16127;SDS011;8168;49.036;7.690;2022-11-20T02:50:08;6.37;;;4.77;;
16127;SDS011;8168;49.036;7.690;2022-11-20T02:52:39;7.13;;;4.53;;
16127;SDS011;8168;49.036;7.690;2022-11-20T02:55:10;10.37;;;5.20;;
16127;SDS011;8168;49.036;7.690;2022-11-20T02:57:40;6.93;;;4.80;;
16127;SDS011;8168;49.036;7.690;2022-11-20T03:00:11;8.30;;;4.30;;
16127;SDS011;8168;49.036;7.690;2022-11-20T03:02:42;6.47;;;4.57;;
16127;SDS011;8168;49.036;7.690;2022-11-20T03:05:13;5.90;;;4.50;;
16127;SDS011;8168;49.036;7.690;2022-11-20T03:07:44;5.50;;;4.37;;
16127;SDS011;8168;49.036;7.690;2022-11-20T03:10:14;7.27;;;4.47;;
16127;SDS011;8168;49.036;7.690;2022-11-20T03:12:45;6.57;;;4.60;;
16127;SDS011;8168;49.036;7.690;2022-11-20T03:15:16;6.30;;;4.63;;
16127;SDS011;8168;49.036;7.690;2022-11-20T03:17:46;5.07;;;4.20;;
16127;SDS011;8168;49.036;7.690;2022-11-20T03:20:17;7.20;;;4.30;;
16127;SDS011;8168;49.036;7.690;2022-11-20T03:22:47;5.53;;;4.13;;
16127;SDS011;8168;49.036;7.690;2022-11-20T03:25:18;6.23;;;4.10;;
16127;SDS011;8168;49.036;7.690;2022-11-20T03:27:49;5.73;;;3.73;;
16127;SDS011;8168;49.036;7.690;2022-11-20T03:30:19;7.53;;;3.80;;
16127;SDS011;8168;49.036;7.690;2022-11-20T03:32:52;5.37;;;3.90;;
16127;SDS011;8168;49.036;7.690;2022-11-20T03:35:23;6.83;;;3.90;;
16127;SDS011;8168;49.036;7.690;2022-11-20T03:37:54;4.73;;;3.50;;
16127;SDS011;8168;49.036;7.690;2022-11-20T03:40:25;4.43;;;3.60;;
16127;SDS011;8168;49.036;7.690;2022-11-20T03:42:55;6.47;;;4.00;;
16127;SDS011;8168;49.036;7.690;2022-11-20T03:45:26;4.67;;;3.40;;
16127;SDS011;8168;49.036;7.690;2022-11-20T03:47:56;4.93;;;3.93;;
16127;SDS011;8168;49.036;7.690;2022-11-20T03:50:27;4.90;;;3.63;;
16127;SDS011;8168;49.036;7.690;2022-11-20T03:52:58;3.67;;;2.97;;
16127;SDS011;8168;49.036;7.690;2022-11-20T03:55:28;4.07;;;3.10;;
16127;SDS011;8168;49.036;7.690;2022-11-20T03:57:59;5.17;;;3.57;;
16127;SDS011;8168;49.036;7.690;2022-11-20T04:00:29;5.60;;;3.43;;
16127;SDS011;8168;49.036;7.690;2022-11-20T04:03:00;4.20;;;3.00;;
16127;SDS011;8168;49.036;7.690;2022-11-20T04:05:32;4.53;;;3.40;;
16127;SDS011;8168;49.036;7.690;2022-11-20T04:08:04;5.30;;;3.57;;
16127;SDS011;8168;49.036;7.690;2022-11-20T04:10:38;4.87;;;3.67;;
16127;SDS011;8168;49.036;7.690;2022-11-20T04:13:08;5.63;;;3.90;;
16127;SDS011;8168;49.036;7.690;2022-11-20T04:15:39;5.77;;;3.23;;
16127;SDS011;8168;49.036;7.690;2022-11-20T04:18:09;4.77;;;3.83;;
16127;SDS011;8168;49.036;7.690;2022-11-20T04:20:40;4.83;;;3.53;;
16127;SDS011;8168;49.036;7.690;2022-11-20T04:23:11;5.03;;;3.37;;
16127;SDS011;8168;49.036;7.690;2022-11-20T04:25:41;4.37;;;3.20;;
16127;SDS011;8168;49.036;7.690;2022-11-20T04:28:12;5.90;;;3.33;;
16127;SDS011;8168;49.036;7.690;2022-11-20T04:30:43;3.63;;;3.00;;
16127;SDS011;8168;49.036;7.690;2022-11-20T04:33:13;4.13;;;2.90;;
16127;SDS011;8168;49.036;7.690;2022-11-20T04:35:44;4.50;;;3.17;;
16127;SDS011;8168;49.036;7.690;2022-11-20T04:38:17;7.20;;;3.80;;
16127;SDS011;8168;49.036;7.690;2022-11-20T04:40:48;6.23;;;3.10;;
16127;SDS011;8168;49.036;7.690;2022-11-20T04:43:18;4.63;;;3.20;;
16127;SDS011;8168;49.036;7.690;2022-11-20T04:45:53;4.03;;;3.47;;
16127;SDS011;8168;49.036;7.690;2022-11-20T04:48:24;4.53;;;3.33;;
16127;SDS011;8168;49.036;7.690;2022-11-20T04:50:56;3.70;;;3.07;;
16127;SDS011;8168;49.036;7.690;2022-11-20T04:53:27;3.60;;;3.00;;
16127;SDS011;8168;49.036;7.690;2022-11-20T04:56:00;4.77;;;3.47;;
16127;SDS011;8168;49.036;7.690;2022-11-20T04:58:35;4.23;;;3.00;;
16127;SDS011;8168;49.036;7.690;2022-11-20T05:03:42;3.00;;;2.70;;
16127;SDS011;8168;49.036;7.690;2022-11-20T05:06:15;3.10;;;2.80;;
16127;SDS011;8168;49.036;7.690;2022-11-20T05:08:47;4.03;;;3.00;;
16127;SDS011;8168;49.036;7.690;2022-11-20T05:11:19;3.47;;;2.47;;
16127;SDS011;8168;49.036;7.690;2022-11-20T05:13:51;4.00;;;3.00;;
16127;SDS011;8168;49.036;7.690;2022-11-20T05:16:23;4.93;;;3.03;;
16127;SDS011;8168;49.036;7.690;2022-11-20T05:18:54;4.13;;;2.83;;
16127;SDS011;8168;49.036;7.690;2022-11-20T05:21:25;5.37;;;3.20;;
16127;SDS011;8168;49.036;7.690;2022-11-20T05:23:56;4.30;;;3.23;;
16127;SDS011;8168;49.036;7.690;2022-11-20T05:26:26;4.33;;;3.00;;
16127;SDS011;8168;49.036;7.690;2022-11-20T05:28:57;3.43;;;2.80;;
16127;SDS011;8168;49.036;7.690;2022-11-20T05:31:27;3.00;;;2.67;;
16127;SDS011;8168;49.036;7.690;2022-11-20T05:33:58;3.77;;;2.87;;
16127;SDS011;8168;49.036;7.690;2022-11-20T05:36:29;4.47;;;2.57;;
16127;SDS011;8168;49.036;7.690;2022-11-20T05:39:00;4.47;;;3.20;;
16127;SDS011;8168;49.036;7.690;2022-11-20T05:41:32;3.00;;;2.70;;
16127;SDS011;8168;49.036;7.690;2022-11-20T05:44:03;4.07;;;2.80;;
16127;SDS011;8168;49.036;7.690;2022-11-20T05:46:34;4.23;;;2.83;;
16127;SDS011;8168;49.036;7.690;2022-11-20T05:49:05;6.53;;;3.50;;
16127;SDS011;8168;49.036;7.690;2022-11-20T05:51:35;5.90;;;2.87;;
16127;SDS011;8168;49.036;7.690;2022-11-20T05:54:06;4.40;;;2.97;;
16127;SDS011;8168;49.036;7.690;2022-11-20T05:56:36;3.03;;;2.57;;
16127;SDS011;8168;49.036;7.690;2022-11-20T05:59:07;3.30;;;2.80;;
16127;SDS011;8168;49.036;7.690;2022-11-20T06:01:38;2.80;;;2.50;;
16127;SDS011;8168;49.036;7.690;2022-11-20T06:04:08;3.13;;;2.50;;
16127;SDS011;8168;49.036;7.690;2022-11-20T06:06:39;5.37;;;2.83;;
16127;SDS011;8168;49.036;7.690;2022-11-20T06:09:10;5.00;;;3.43;;
16127;SDS011;8168;49.036;7.690;2022-11-20T06:11:40;6.83;;;3.30;;
16127;SDS011;8168;49.036;7.690;2022-11-20T06:14:11;7.07;;;3.73;;
16127;SDS011;8168;49.036;7.690;2022-11-20T06:16:41;4.20;;;3.00;;
16127;SDS011;8168;49.036;7.690;2022-11-20T06:19:12;4.23;;;3.37;;
16127;SDS011;8168;49.036;7.690;2022-11-20T06:21:43;4.27;;;3.20;;
16127;SDS011;8168;49.036;7.690;2022-11-20T06:24:13;3.97;;;3.17;;
16127;SDS011;8168;49.036;7.690;2022-11-20T06:26:44;5.13;;;3.73;;
16127;SDS011;8168;49.036;7.690;2022-11-20T06:29:15;4.23;;;2.73;;
16127;SDS011;8168;49.036;7.690;2022-11-20T06:31:46;5.00;;;3.70;;
16127;SDS011;8168;49.036;7.690;2022-11-20T06:34:16;7.23;;;3.50;;
16127;SDS011;8168;49.036;7.690;2022-11-20T06:36:47;4.13;;;3.43;;
16127;SDS011;8168;49.036;7.690;2022-11-20T06:39:17;3.90;;;3.50;;
16127;SDS011;8168;49.036;7.690;2022-11-20T06:41:48;4.63;;;3.73;;
16127;SDS011;8168;49.036;7.690;2022-11-20T06:44:19;5.23;;;3.67;;
16127;SDS011;8168;49.036;7.690;2022-11-20T06:46:49;6.30;;;4.10;;
16127;SDS011;8168;49.036;7.690;2022-11-20T06:49:20;4.93;;;4.07;;
16127;SDS011;8168;49.036;7.690;2022-11-20T06:51:50;4.87;;;3.80;;
16127;SDS011;8168;49.036;7.690;2022-11-20T06:54:21;5.13;;;3.20;;
16127;SDS011;8168;49.036;7.690;2022-11-20T06:56:51;5.40;;;3.33;;
16127;SDS011;8168;49.036;7.690;2022-11-20T06:59:22;4.07;;;3.47;;
16127;SDS011;8168;49.036;7.690;2022-11-20T07:01:53;4.67;;;3.00;;
16127;SDS011;8168;49.036;7.690;2022-11-20T07:04:23;4.87;;;3.20;;
16127;SDS011;8168;49.036;7.690;2022-11-20T07:06:54;6.13;;;3.60;;
16127;SDS011;8168;49.036;7.690;2022-11-20T07:09:24;5.83;;;3.70;;
16127;SDS011;8168;49.036;7.690;2022-11-20T07:11:55;3.13;;;2.83;;
16127;SDS011;8168;49.036;7.690;2022-11-20T07:14:26;4.30;;;3.37;;
16127;SDS011;8168;49.036;7.690;2022-11-20T07:16:56;5.27;;;3.40;;
16127;SDS011;8168;49.036;7.690;2022-11-20T07:19:27;4.53;;;3.53;;
16127;SDS011;8168;49.036;7.690;2022-11-20T07:21:57;4.27;;;3.43;;
16127;SDS011;8168;49.036;7.690;2022-11-20T07:24:28;5.67;;;3.47;;
16127;SDS011;8168;49.036;7.690;2022-11-20T07:26:59;5.03;;;3.37;;
16127;SDS011;8168;49.036;7.690;2022-11-20T07:29:29;3.80;;;3.37;;
16127;SDS011;8168;49.036;7.690;2022-11-20T07:32:00;6.60;;;3.33;;
16127;SDS011;8168;49.036;7.690;2022-11-20T07:34:31;4.70;;;3.53;;
16127;SDS011;8168;49.036;7.690;2022-11-20T07:37:01;6.87;;;4.70;;
16127;SDS011;8168;49.036;7.690;2022-11-20T07:39:32;10.07;;;7.50;;
16127;SDS011;8168;49.036;7.690;2022-11-20T07:42:02;4.53;;;4.13;;
16127;SDS011;8168;49.036;7.690;2022-11-20T07:44:33;4.13;;;3.43;;
16127;SDS011;8168;49.036;7.690;2022-11-20T07:47:04;7.50;;;3.77;;
16127;SDS011;8168;49.036;7.690;2022-11-20T07:49:35;4.80;;;3.30;;
16127;SDS011;8168;49.036;7.690;2022-11-20T07:52:05;4.63;;;3.97;;
16127;SDS011;8168;49.036;7.690;2022-11-20T07:54:36;4.73;;;3.90;;
16127;SDS011;8168;49.036;7.690;2022-11-20T07:57:07;5.80;;;3.90;;
16127;SDS011;8168;49.036;7.690;2022-11-20T07:59:38;7.23;;;4.03;;
16127;SDS011;8168;49.036;7.690;2022-11-20T08:02:11;3.60;;;3.17;;
16127;SDS011;8168;49.036;7.690;2022-11-20T08:04:42;2.80;;;2.50;;
16127;SDS011;8168;49.036;7.690;2022-11-20T08:07:12;2.87;;;2.63;;
16127;SDS011;8168;49.036;7.690;2022-11-20T08:09:43;3.07;;;2.77;;
16127;SDS011;8168;49.036;7.690;2022-11-20T08:12:18;3.87;;;2.70;;
16127;SDS011;8168;49.036;7.690;2022-11-20T08:15:08;3.47;;;2.83;;
16127;SDS011;8168;49.036;7.690;2022-11-20T08:17:39;6.77;;;3.20;;
16127;SDS011;8168;49.036;7.690;2022-11-20T08:20:10;4.90;;;3.00;;
16127;SDS011;8168;49.036;7.690;2022-11-20T08:22:40;4.23;;;3.07;;
16127;SDS011;8168;49.036;7.690;2022-11-20T08:25:11;4.90;;;3.00;;
16127;SDS011;8168;49.036;7.690;2022-11-20T08:27:42;3.80;;;2.70;;
16127;SDS011;8168;49.036;7.690;2022-11-20T08:30:12;4.67;;;2.50;;
16127;SDS011;8168;49.036;7.690;2022-11-20T08:32:43;4.43;;;2.97;;
16127;SDS011;8168;49.036;7.690;2022-11-20T08:35:14;3.13;;;2.83;;
16127;SDS011;8168;49.036;7.690;2022-11-20T08:37:48;3.40;;;2.80;;
16127;SDS011;8168;49.036;7.690;2022-11-20T08:40:19;5.10;;;3.33;;
16127;SDS011;8168;49.036;7.690;2022-11-20T08:42:50;4.17;;;3.37;;
16127;SDS011;8168;49.036;7.690;2022-11-20T08:45:21;4.03;;;3.30;;
16127;SDS011;8168;49.036;7.690;2022-11-20T08:47:52;3.40;;;3.10;;
16127;SDS011;8168;49.036;7.690;2022-11-20T08:50:23;5.77;;;3.57;;
16127;SDS011;8168;49.036;7.690;2022-11-20T08:52:53;5.07;;;3.20;;
16127;SDS011;8168;49.036;7.690;2022-11-20T08:55:24;5.27;;;3.17;;
16127;SDS011;8168;49.036;7.690;2022-11-20T08:57:54;3.93;;;2.87;;
16127;SDS011;8168;49.036;7.690;2022-11-20T09:00:25;4.07;;;3.23;;
16127;SDS011;8168;49.036;7.690;2022-11-20T09:02:56;4.70;;;3.13;;
16127;SDS011;8168;49.036;7.690;2022-11-20T09:05:28;4.73;;;3.37;;
16127;SDS011;8168;49.036;7.690;2022-11-20T09:07:59;6.93;;;3.40;;
16127;SDS011;8168;49.036;7.690;2022-11-20T09:10:30;3.23;;;2.27;;
16127;SDS011;8168;49.036;7.690;2022-11-20T09:13:01;7.60;;;3.13;;
16127;SDS011;8168;49.036;7.690;2022-11-20T09:15:31;4.37;;;3.30;;
16127;SDS011;8168;49.036;7.690;2022-11-20T09:18:02;3.97;;;2.70;;
16127;SDS011;8168;49.036;7.690;2022-11-20T09:20:34;6.37;;;3.50;;
16127;SDS011;8168;49.036;7.690;2022-11-20T09:23:05;4.90;;;3.70;;
16127;SDS011;8168;49.036;7.690;2022-11-20T09:25:36;5.70;;;3.50;;
16127;SDS011;8168;49.036;7.690;2022-11-20T09:28:06;5.60;;;3.60;;
16127;SDS011;8168;49.036;7.690;2022-11-20T09:30:37;5.60;;;4.00;;
16127;SDS011;8168;49.036;7.690;2022-11-20T09:33:08;5.23;;;3.20;;
16127;SDS011;8168;49.036;7.690;2022-11-20T09:35:38;5.40;;;3.73;;
16127;SDS011;8168;49.036;7.690;2022-11-20T09:38:09;6.13;;;4.00;;
16127;SDS011;8168;49.036;7.690;2022-11-20T09:40:45;3.57;;;3.17;;
16127;SDS011;8168;49.036;7.690;2022-11-20T09:43:29;5.50;;;3.47;;
16127;SDS011;8168;49.036;7.690;2022-11-20T09:51:28;3.90;;;3.03;;
16127;SDS011;8168;49.036;7.690;2022-11-20T09:54:25;6.40;;;3.90;;
16127;SDS011;8168;49.036;7.690;2022-11-20T09:57:02;6.63;;;3.50;;
16127;SDS011;8168;49.036;7.690;2022-11-20T09:59:42;6.23;;;3.90;;
16127;SDS011;8168;49.036;7.690;2022-11-20T10:08:07;4.57;;;3.17;;
16127;SDS011;8168;49.036;7.690;2022-11-20T10:11:13;5.77;;;3.40;;
16127;SDS011;8168;49.036;7.690;2022-11-20T10:19:52;5.50;;;3.30;;
16127;SDS011;8168;49.036;7.690;2022-11-20T10:25:15;5.37;;;3.47;;
16127;SDS011;8168;49.036;7.690;2022-11-20T10:30:40;5.40;;;3.03;;
16127;SDS011;8168;49.036;7.690;2022-11-20T10:33:15;4.87;;;3.30;;
16127;SDS011;8168;49.036;7.690;2022-11-20T10:38:47;4.67;;;3.33;;
16127;SDS011;8168;49.036;7.690;2022-11-20T10:41:27;8.27;;;3.60;;
16127;SDS011;8168;49.036;7.690;2022-11-20T10:44:26;3.90;;;2.40;;
16127;SDS011;8168;49.036;7.690;2022-11-20T10:47:17;5.63;;;2.60;;
16127;SDS011;8168;49.036;7.690;2022-11-20T10:49:49;4.77;;;2.53;;
16127;SDS011;8168;49.036;7.690;2022-11-20T10:58:01;2.40;;;1.87;;
16127;SDS011;8168;49.036;7.690;2022-11-20T11:00:40;3.07;;;2.17;;
16127;SDS011;8168;49.036;7.690;2022-11-20T11:03:20;4.67;;;2.10;;
16127;SDS011;8168;49.036;7.690;2022-11-20T11:08:38;5.23;;;2.10;;
16127;SDS011;8168;49.036;7.690;2022-11-20T11:11:15;2.83;;;1.63;;
16127;SDS011;8168;49.036;7.690;2022-11-20T11:14:09;3.73;;;1.77;;
16127;SDS011;8168;49.036;7.690;2022-11-20T11:16:52;6.13;;;1.90;;
16127;SDS011;8168;49.036;7.690;2022-11-20T11:19:24;3.57;;;1.90;;
16127;SDS011;8168;49.036;7.690;2022-11-20T11:21:56;2.40;;;1.60;;
16127;SDS011;8168;49.036;7.690;2022-11-20T11:24:28;2.13;;;1.50;;
16127;SDS011;8168;49.036;7.690;2022-11-20T11:27:01;7.97;;;1.77;;
16127;SDS011;8168;49.036;7.690;2022-11-20T11:29:34;6.50;;;2.20;;
16127;SDS011;8168;49.036;7.690;2022-11-20T11:32:06;4.60;;;1.73;;
16127;SDS011;8168;49.036;7.690;2022-11-20T11:34:38;2.70;;;1.50;;
16127;SDS011;8168;49.036;7.690;2022-11-20T11:37:17;2.93;;;1.80;;
16127;SDS011;8168;49.036;7.690;2022-11-20T11:39:51;7.37;;;1.90;;
16127;SDS011;8168;49.036;7.690;2022-11-20T11:42:22;4.70;;;1.83;;
16127;SDS011;8168;49.036;7.690;2022-11-20T11:44:53;2.10;;;1.13;;
16127;SDS011;8168;49.036;7.690;2022-11-20T11:47:36;2.07;;;1.67;;
16127;SDS011;8168;49.036;7.690;2022-11-20T11:50:18;2.87;;;1.77;;
16127;SDS011;8168;49.036;7.690;2022-11-20T11:52:55;2.47;;;1.23;;
16127;SDS011;8168;49.036;7.690;2022-11-20T12:01:32;2.40;;;1.80;;
16127;SDS011;8168;49.036;7.690;2022-11-20T12:04:23;2.97;;;1.97;;
16127;SDS011;8168;49.036;7.690;2022-11-20T12:07:15;1.90;;;1.50;;
16127;SDS011;8168;49.036;7.690;2022-11-20T12:10:00;2.40;;;1.63;;
16127;SDS011;8168;49.036;7.690;2022-11-20T12:12:38;2.50;;;1.60;;
16127;SDS011;8168;49.036;7.690;2022-11-20T12:15:16;4.13;;;1.97;;
16127;SDS011;8168;49.036;7.690;2022-11-20T12:17:57;3.43;;;1.90;;
16127;SDS011;8168;49.036;7.690;2022-11-20T12:20:29;1.40;;;1.30;;
16127;SDS011;8168;49.036;7.690;2022-11-20T12:23:08;3.73;;;1.40;;
16127;SDS011;8168;49.036;7.690;2022-11-20T12:25:48;2.90;;;0.93;;
16127;SDS011;8168;49.036;7.690;2022-11-20T12:28:32;3.43;;;1.10;;
16127;SDS011;8168;49.036;7.690;2022-11-20T12:34:15;2.27;;;1.03;;
16127;SDS011;8168;49.036;7.690;2022-11-20T12:37:25;2.33;;;1.07;;
16127;SDS011;8168;49.036;7.690;2022-11-20T12:43:29;2.67;;;1.03;;
16127;SDS011;8168;49.036;7.690;2022-11-20T12:49:24;0.90;;;0.70;;
16127;SDS011;8168;49.036;7.690;2022-11-20T13:00:20;1.70;;;1.50;;
16127;SDS011;8168;49.036;7.690;2022-11-20T13:08:23;2.63;;;0.73;;
16127;SDS011;8168;49.036;7.690;2022-11-20T13:19:26;2.33;;;0.50;;
16127;SDS011;8168;49.036;7.690;2022-11-20T13:21:58;1.60;;;0.90;;
16127;SDS011;8168;49.036;7.690;2022-11-20T13:24:30;0.87;;;0.50;;
16127;SDS011;8168;49.036;7.690;2022-11-20T13:29:58;0.87;;;0.67;;
16127;SDS011;8168;49.036;7.690;2022-11-20T13:32:31;0.93;;;0.80;;
16127;SDS011;8168;49.036;7.690;2022-11-20T13:35:03;2.27;;;0.77;;
16127;SDS011;8168;49.036;7.690;2022-11-20T13:37:36;0.73;;;0.70;;
16127;SDS011;8168;49.036;7.690;2022-11-20T13:45:28;1.40;;;0.87;;
16127;SDS011;8168;49.036;7.690;2022-11-20T13:48:22;1.23;;;0.90;;
16127;SDS011;8168;49.036;7.690;2022-11-20T14:00:43;1.37;;;0.70;;
16127;SDS011;8168;49.036;7.690;2022-11-20T14:03:19;1.40;;;0.83;;
16127;SDS011;8168;49.036;7.690;2022-11-20T14:05:56;4.10;;;1.03;;
16127;SDS011;8168;49.036;7.690;2022-11-20T14:11:16;0.60;;;0.60;;
16127;SDS011;8168;49.036;7.690;2022-11-20T14:16:33;1.83;;;0.90;;
16127;SDS011;8168;49.036;7.690;2022-11-20T14:22:36;0.97;;;0.90;;
16127;SDS011;8168;49.036;7.690;2022-11-20T14:25:07;0.67;;;0.60;;
16127;SDS011;8168;49.036;7.690;2022-11-20T14:27:50;0.97;;;0.77;;
16127;SDS011;8168;49.036;7.690;2022-11-20T14:30:27;0.50;;;0.47;;
16127;SDS011;8168;49.036;7.690;2022-11-20T14:33:02;0.80;;;0.70;;
16127;SDS011;8168;49.036;7.690;2022-11-20T14:35:34;0.67;;;0.67;;
16127;SDS011;8168;49.036;7.690;2022-11-20T14:38:12;1.67;;;0.70;;
16127;SDS011;8168;49.036;7.690;2022-11-20T14:40:45;3.17;;;0.80;;
16127;SDS011;8168;49.036;7.690;2022-11-20T14:45:57;0.60;;;0.60;;
16127;SDS011;8168;49.036;7.690;2022-11-20T14:48:31;1.30;;;0.63;;
16127;SDS011;8168;49.036;7.690;2022-11-20T14:51:08;3.63;;;1.00;;
16127;SDS011;8168;49.036;7.690;2022-11-20T14:53:40;2.07;;;0.80;;
16127;SDS011;8168;49.036;7.690;2022-11-20T14:56:11;1.23;;;0.90;;
16127;SDS011;8168;49.036;7.690;2022-11-20T14:58:41;2.53;;;1.00;;
16127;SDS011;8168;49.036;7.690;2022-11-20T15:01:12;2.00;;;0.67;;
16127;SDS011;8168;49.036;7.690;2022-11-20T15:03:44;1.50;;;0.70;;
16127;SDS011;8168;49.036;7.690;2022-11-20T15:06:14;0.70;;;0.70;;
16127;SDS011;8168;49.036;7.690;2022-11-20T15:08:56;1.83;;;0.93;;
16127;SDS011;8168;49.036;7.690;2022-11-20T15:11:33;2.10;;;0.50;;
16127;SDS011;8168;49.036;7.690;2022-11-20T15:14:05;2.60;;;0.80;;
16127;SDS011;8168;49.036;7.690;2022-11-20T15:16:37;3.20;;;0.80;;
16127;SDS011;8168;49.036;7.690;2022-11-20T15:19:16;1.73;;;1.00;;
16127;SDS011;8168;49.036;7.690;2022-11-20T15:21:49;1.03;;;0.80;;
16127;SDS011;8168;49.036;7.690;2022-11-20T15:24:19;1.20;;;0.90;;
16127;SDS011;8168;49.036;7.690;2022-11-20T15:26:50;1.87;;;0.90;;
16127;SDS011;8168;49.036;7.690;2022-11-20T15:29:21;1.67;;;0.70;;
16127;SDS011;8168;49.036;7.690;2022-11-20T15:31:53;1.03;;;0.63;;
16127;SDS011;8168;49.036;7.690;2022-11-20T15:34:26;2.80;;;1.13;;
16127;SDS011;8168;49.036;7.690;2022-11-20T15:36:57;0.80;;;0.80;;
16127;SDS011;8168;49.036;7.690;2022-11-20T15:39:28;2.40;;;1.13;;
16127;SDS011;8168;49.036;7.690;2022-11-20T15:41:58;1.70;;;0.90;;
16127;SDS011;8168;49.036;7.690;2022-11-20T15:44:29;1.47;;;1.00;;
16127;SDS011;8168;49.036;7.690;2022-11-20T15:46:59;1.83;;;1.10;;
16127;SDS011;8168;49.036;7.690;2022-11-20T15:49:30;2.17;;;1.00;;
16127;SDS011;8168;49.036;7.690;2022-11-20T15:52:01;1.07;;;0.70;;
16127;SDS011;8168;49.036;7.690;2022-11-20T15:54:31;5.47;;;1.23;;
16127;SDS011;8168;49.036;7.690;2022-11-20T15:57:02;2.40;;;0.90;;
16127;SDS011;8168;49.036;7.690;2022-11-20T15:59:32;1.37;;;1.17;;
16127;SDS011;8168;49.036;7.690;2022-11-20T16:02:07;5.47;;;0.90;;
16127;SDS011;8168;49.036;7.690;2022-11-20T16:04:40;1.30;;;1.20;;
16127;SDS011;8168;49.036;7.690;2022-11-20T16:07:11;2.83;;;1.10;;
16127;SDS011;8168;49.036;7.690;2022-11-20T16:09:45;3.07;;;1.33;;
16127;SDS011;8168;49.036;7.690;2022-11-20T16:12:15;2.67;;;1.20;;
16127;SDS011;8168;49.036;7.690;2022-11-20T16:15:07;4.23;;;0.90;;
16127;SDS011;8168;49.036;7.690;2022-11-20T16:17:57;1.90;;;0.87;;
16127;SDS011;8168;49.036;7.690;2022-11-20T16:20:27;2.93;;;1.40;;
16127;SDS011;8168;49.036;7.690;2022-11-20T16:22:59;2.67;;;1.07;;
16127;SDS011;8168;49.036;7.690;2022-11-20T16:25:29;2.30;;;1.00;;
16127;SDS011;8168;49.036;7.690;2022-11-20T16:28:00;1.50;;;1.40;;
16127;SDS011;8168;49.036;7.690;2022-11-20T16:30:31;3.93;;;1.20;;
16127;SDS011;8168;49.036;7.690;2022-11-20T16:33:03;3.70;;;1.00;;
16127;SDS011;8168;49.036;7.690;2022-11-20T16:35:34;3.30;;;1.00;;
16127;SDS011;8168;49.036;7.690;2022-11-20T16:38:05;2.87;;;1.10;;
16127;SDS011;8168;49.036;7.690;2022-11-20T16:40:35;1.10;;;1.00;;
16127;SDS011;8168;49.036;7.690;2022-11-20T16:43:07;2.03;;;1.37;;
16127;SDS011;8168;49.036;7.690;2022-11-20T16:45:43;2.03;;;1.07;;
16127;SDS011;8168;49.036;7.690;2022-11-20T16:48:15;3.10;;;1.07;;
16127;SDS011;8168;49.036;7.690;2022-11-20T16:50:47;1.53;;;1.07;;
16127;SDS011;8168;49.036;7.690;2022-11-20T16:53:20;4.33;;;1.30;;
16127;SDS011;8168;49.036;7.690;2022-11-20T16:55:52;2.00;;;1.20;;
16127;SDS011;8168;49.036;7.690;2022-11-20T16:58:22;0.87;;;0.70;;
16127;SDS011;8168;49.036;7.690;2022-11-20T17:00:53;3.87;;;1.53;;
16127;SDS011;8168;49.036;7.690;2022-11-20T17:03:23;1.63;;;0.87;;
16127;SDS011;8168;49.036;7.690;2022-11-20T17:05:54;5.73;;;1.10;;
16127;SDS011;8168;49.036;7.690;2022-11-20T17:08:26;4.93;;;0.97;;
16127;SDS011;8168;49.036;7.690;2022-11-20T17:11:03;2.90;;;1.50;;
16127;SDS011;8168;49.036;7.690;2022-11-20T17:13:35;2.10;;;1.30;;
16127;SDS011;8168;49.036;7.690;2022-11-20T17:16:11;3.23;;;1.10;;
16127;SDS011;8168;49.036;7.690;2022-11-20T17:18:43;2.53;;;1.23;;
16127;SDS011;8168;49.036;7.690;2022-11-20T17:21:14;1.50;;;1.03;;
16127;SDS011;8168;49.036;7.690;2022-11-20T17:23:46;1.20;;;0.90;;
16127;SDS011;8168;49.036;7.690;2022-11-20T17:26:17;0.70;;;0.70;;
16127;SDS011;8168;49.036;7.690;2022-11-20T17:28:53;1.47;;;0.93;;